Time;durP1;ratioP1;P1;durP2;ratioP2;P2;SDS_P1;SDS_P2;PMS_P1;PMS_P2;Temp;Humidity;BMP_temperature;BMP_pressure;BME280_temperature;BME280_humidity;BME280_pressure;Samples;Min_cycle;Max_cycle;Signal;HPM_P1;HPM_P2
2023/03/09 00:02:09;;;;;;;14.80;7.20;;;2.10;99.90;;;;;;5093299;28;20036;-47
2023/03/09 00:04:35;;;;;;;17.10;8.70;;;2.20;99.90;;;;;;5093444;28;20044;-48
2023/03/09 00:07:01;;;;;;;16.77;9.35;;;2.20;99.90;;;;;;5093219;28;20526;-48
2023/03/09 00:09:27;;;;;;;18.52;8.43;;;2.00;99.90;;;;;;5093229;28;20047;-47
2023/03/09 00:11:52;;;;;;;15.93;8.10;;;2.00;99.90;;;;;;5093139;28;20035;-51
2023/03/09 00:14:21;;;;;;;17.67;8.95;;;2.10;99.90;;;;;;5093206;28;20115;-47
2023/03/09 00:16:47;;;;;;;18.00;9.05;;;2.10;99.90;;;;;;5093075;28;20036;-49
2023/03/09 00:19:20;;;;;;;17.40;9.75;;;1.90;99.90;;;;;;5092905;28;20108;-49
2023/03/09 00:21:51;;;;;;;17.75;9.23;;;1.90;99.90;;;;;;5092971;28;20162;-47
2023/03/09 00:24:19;;;;;;;16.77;9.90;;;1.90;99.90;;;;;;5093034;28;20063;-48
2023/03/09 00:26:53;;;;;;;18.50;10.75;;;2.00;99.90;;;;;;5092737;28;20044;-52
2023/03/09 00:29:19;;;;;;;17.20;9.43;;;1.90;99.90;;;;;;5092947;28;20072;-48
2023/03/09 00:31:45;;;;;;;20.73;11.32;;;1.90;99.90;;;;;;5092748;28;20467;-49
2023/03/09 00:34:18;;;;;;;19.25;10.70;;;2.10;99.90;;;;;;5092968;28;20047;-49
2023/03/09 00:36:44;;;;;;;18.05;10.25;;;1.90;99.90;;;;;;5092877;28;20070;-49
2023/03/09 00:39:11;;;;;;;19.05;10.90;;;1.90;99.90;;;;;;5092796;28;20487;-47
2023/03/09 00:41:37;;;;;;;18.15;10.95;;;1.80;99.90;;;;;;5092497;28;20040;-48
2023/03/09 00:44:04;;;;;;;18.25;10.63;;;2.00;99.90;;;;;;5092561;28;20040;-50
2023/03/09 00:46:31;;;;;;;20.10;11.25;;;1.90;99.90;;;;;;5092870;28;20051;-51
2023/03/09 00:48:57;;;;;;;20.42;11.70;;;1.70;99.90;;;;;;5092526;28;20044;-48
2023/03/09 00:51:23;;;;;;;20.30;10.95;;;1.90;99.90;;;;;;5092225;28;20407;-49
2023/03/09 00:53:49;;;;;;;20.58;11.15;;;1.70;99.90;;;;;;5092418;28;20040;-50
2023/03/09 00:56:25;;;;;;;22.60;11.88;;;1.70;99.90;;;;;;5092436;28;20087;-49
2023/03/09 00:58:51;;;;;;;19.02;11.27;;;1.90;99.90;;;;;;5092742;28;20047;-49
2023/03/09 01:01:17;;;;;;;20.42;11.40;;;1.60;99.90;;;;;;5092586;28;20038;-47
2023/03/09 01:03:44;;;;;;;18.05;10.38;;;1.70;99.90;;;;;;5092379;28;20044;-50
2023/03/09 01:06:10;;;;;;;20.38;10.95;;;1.60;99.90;;;;;;5092390;28;20349;-47
2023/03/09 01:08:36;;;;;;;20.30;10.80;;;1.70;99.90;;;;;;5091358;28;20430;-47
2023/03/09 01:11:07;;;;;;;21.30;12.13;;;1.80;99.90;;;;;;5092143;28;20043;-49
2023/03/09 01:13:33;;;;;;;18.98;11.07;;;1.50;99.90;;;;;;5090670;28;20044;-49
2023/03/09 01:15:59;;;;;;;21.67;11.68;;;1.70;99.90;;;;;;5092315;28;20043;-47
2023/03/09 01:18:25;;;;;;;19.73;11.00;;;1.50;99.90;;;;;;5092092;28;20032;-47
2023/03/09 01:20:50;;;;;;;19.05;10.73;;;1.40;99.90;;;;;;5092180;28;20467;-47
2023/03/09 01:23:16;;;;;;;21.60;12.52;;;1.60;99.90;;;;;;5092078;28;20131;-47
2023/03/09 01:25:42;;;;;;;20.52;10.77;;;1.40;99.90;;;;;;5091983;28;20043;-47
2023/03/09 01:28:08;;;;;;;21.98;11.65;;;1.30;99.90;;;;;;5091952;28;20108;-47
2023/03/09 01:30:34;;;;;;;21.58;11.35;;;1.50;99.90;;;;;;5092211;28;20032;-50
2023/03/09 01:32:59;;;;;;;20.02;11.68;;;1.50;99.90;;;;;;5091793;28;20070;-47
2023/03/09 01:35:25;;;;;;;21.52;10.90;;;1.50;99.90;;;;;;5092030;28;20032;-46
2023/03/09 01:37:51;;;;;;;19.48;11.45;;;1.30;99.90;;;;;;5091785;28;20056;-47
2023/03/09 01:40:20;;;;;;;22.60;12.05;;;1.20;99.90;;;;;;5091925;28;20071;-47
2023/03/09 01:43:00;;;;;;;25.25;12.35;;;1.30;99.90;;;;;;5091792;28;20036;-51
2023/03/09 01:45:29;;;;;;;20.83;10.70;;;1.30;99.90;;;;;;5092081;28;20032;-50
2023/03/09 01:47:59;;;;;;;21.45;11.10;;;1.10;99.90;;;;;;5091709;28;20075;-48
2023/03/09 01:50:30;;;;;;;24.23;11.77;;;1.20;99.90;;;;;;5091916;28;20036;-48
2023/03/09 01:53:00;;;;;;;21.30;11.52;;;1.20;99.90;;;;;;5091556;28;20111;-49
2023/03/09 01:55:32;;;;;;;22.60;12.48;;;1.20;99.90;;;;;;5091858;28;20036;-49
2023/03/09 01:58:15;;;;;;;22.97;11.77;;;1.00;99.90;;;;;;5091895;28;20040;-50
2023/03/09 02:00:44;;;;;;;22.20;11.32;;;1.10;99.90;;;;;;5091845;28;20277;-51
2023/03/09 02:03:18;;;;;;;23.75;12.40;;;1.00;99.90;;;;;;5091590;28;20392;-52
2023/03/09 02:05:49;;;;;;;24.00;12.05;;;0.90;99.90;;;;;;5091878;28;20048;-49
2023/03/09 02:08:16;;;;;;;23.42;11.77;;;1.10;99.90;;;;;;5091636;28;20048;-48
2023/03/09 02:10:51;;;;;;;25.65;13.48;;;1.00;99.90;;;;;;5090582;28;20043;-50
2023/03/09 02:13:19;;;;;;;22.45;11.85;;;1.00;99.90;;;;;;5091440;28;20399;-48
2023/03/09 02:15:45;;;;;;;26.00;13.20;;;0.80;99.90;;;;;;5091497;28;20036;-51
2023/03/09 02:18:11;;;;;;;25.27;12.95;;;1.00;99.90;;;;;;5091865;28;20157;-47
2023/03/09 02:20:40;;;;;;;24.67;11.73;;;0.80;99.90;;;;;;5094278;28;20494;-48
2023/03/09 02:23:12;;;;;;;29.58;13.30;;;1.00;99.90;;;;;;5095314;28;20039;-47
2023/03/09 02:25:40;;;;;;;;;;;0.90;99.90;;;;;;5095695;28;20040;-49
2023/03/09 02:28:07;;;;;;;25.60;13.23;;;1.00;99.90;;;;;;5095011;28;20042;-48
2023/03/09 02:30:36;;;;;;;26.80;12.85;;;1.00;99.90;;;;;;5093986;28;20111;-48
2023/03/09 02:33:09;;;;;;;24.20;13.18;;;1.00;99.90;;;;;;5095184;28;20028;-46
2023/03/09 02:35:34;;;;;;;24.45;13.35;;;0.80;99.90;;;;;;5095245;28;20125;-46
2023/03/09 02:38:00;;;;;;;26.98;13.30;;;1.10;99.90;;;;;;5095170;28;20070;-47
2023/03/09 02:40:31;;;;;;;29.38;14.60;;;0.90;99.90;;;;;;5095360;28;20040;-52
2023/03/09 02:42:57;;;;;;;24.83;13.48;;;0.80;99.90;;;;;;5094909;28;20050;-47
2023/03/09 02:45:23;;;;;;;26.13;13.88;;;0.60;99.90;;;;;;5094839;28;20123;-47
2023/03/09 02:47:49;;;;;;;26.17;12.70;;;0.70;99.90;;;;;;5095003;28;20179;-47
2023/03/09 02:50:16;;;;;;;24.00;12.18;;;0.80;99.90;;;;;;5094830;28;20032;-47
2023/03/09 02:52:41;;;;;;;27.95;13.48;;;0.70;99.90;;;;;;5094792;28;20097;-46
2023/03/09 02:55:08;;;;;;;24.00;12.25;;;0.90;99.90;;;;;;5094618;28;20043;-47
2023/03/09 02:57:34;;;;;;;27.35;13.57;;;0.90;99.90;;;;;;5094267;28;20048;-47
2023/03/09 03:00:00;;;;;;;28.75;13.20;;;1.00;99.90;;;;;;5094580;28;20050;-48
2023/03/09 03:02:26;;;;;;;25.85;12.75;;;0.80;99.90;;;;;;5094684;28;20119;-46
2023/03/09 03:04:51;;;;;;;31.48;13.00;;;0.90;99.90;;;;;;5094601;28;20036;-47
2023/03/09 03:07:17;;;;;;;27.90;12.70;;;0.70;99.90;;;;;;5094605;28;20048;-47
2023/03/09 03:09:43;;;;;;;27.58;13.02;;;1.00;99.90;;;;;;5094399;28;20101;-46
2023/03/09 03:12:09;;;;;;;26.55;12.75;;;0.80;99.90;;;;;;5094334;28;20407;-46
2023/03/09 03:14:34;;;;;;;27.17;13.77;;;1.10;99.90;;;;;;5094309;28;20283;-51
2023/03/09 03:17:00;;;;;;;25.83;13.60;;;1.10;99.90;;;;;;5094489;28;20032;-48
2023/03/09 03:19:26;;;;;;;28.33;13.77;;;0.80;99.90;;;;;;5094137;28;20044;-46
2023/03/09 03:21:52;;;;;;;29.10;14.10;;;1.10;99.90;;;;;;5094333;28;20039;-47
2023/03/09 03:24:18;;;;;;;33.17;14.48;;;1.10;99.90;;;;;;5094099;28;20421;-49
2023/03/09 03:26:43;;;;;;;30.30;15.02;;;1.10;99.90;;;;;;5093912;28;20044;-47
2023/03/09 03:29:09;;;;;;;29.70;14.80;;;1.10;99.90;;;;;;5094210;28;20047;-46
2023/03/09 03:31:35;;;;;;;29.45;14.80;;;0.90;99.90;;;;;;5093225;28;20398;-46
2023/03/09 03:34:01;;;;;;;31.25;15.88;;;1.10;99.90;;;;;;5093944;28;20462;-47
2023/03/09 03:36:27;;;;;;;28.92;15.18;;;0.90;99.90;;;;;;5094008;28;20115;-48
2023/03/09 03:38:52;;;;;;;30.00;15.10;;;1.10;99.90;;;;;;5093855;28;20174;-50
2023/03/09 03:41:18;;;;;;;31.55;16.00;;;1.10;99.90;;;;;;5092378;28;20399;-48
2023/03/09 03:43:44;;;;;;;31.67;15.82;;;1.00;99.90;;;;;;5092480;28;20189;-47
2023/03/09 03:46:10;;;;;;;29.45;14.65;;;1.00;99.90;;;;;;5093676;28;20036;-48
2023/03/09 03:48:37;;;;;;;32.53;16.48;;;0.90;99.90;;;;;;5093742;28;20040;-51
2023/03/09 03:51:05;;;;;;;34.25;15.38;;;1.00;99.90;;;;;;5093242;28;20385;-46
2023/03/09 03:53:31;;;;;;;31.40;15.43;;;1.00;99.90;;;;;;5092380;28;20043;-47
2023/03/09 03:55:57;;;;;;;28.33;14.52;;;0.90;99.90;;;;;;5093425;28;20039;-45
2023/03/09 03:58:23;;;;;;;32.03;15.27;;;0.80;99.90;;;;;;5092063;28;20508;-49
2023/03/09 04:00:48;;;;;;;31.42;15.77;;;0.90;99.90;;;;;;5093563;28;20040;-46
2023/03/09 04:03:14;;;;;;;30.83;16.45;;;1.00;99.90;;;;;;5093408;28;20506;-47
2023/03/09 04:05:40;;;;;;;33.55;15.65;;;1.10;99.90;;;;;;5093399;28;20044;-46
2023/03/09 04:08:06;;;;;;;33.17;16.27;;;0.90;99.90;;;;;;5092073;28;20036;-47
2023/03/09 04:10:32;;;;;;;32.92;15.88;;;1.20;99.90;;;;;;5093226;28;20101;-48
2023/03/09 04:12:58;;;;;;;33.92;17.05;;;0.90;99.90;;;;;;5093388;28;20054;-46
2023/03/09 04:15:25;;;;;;;30.48;14.98;;;0.90;99.90;;;;;;5093281;28;20097;-50
2023/03/09 04:17:51;;;;;;;30.35;15.20;;;1.10;99.90;;;;;;5093162;28;20036;-46
2023/03/09 04:20:16;;;;;;;27.73;14.88;;;1.10;99.90;;;;;;5091762;28;20075;-45
2023/03/09 04:22:42;;;;;;;31.20;16.55;;;0.90;99.90;;;;;;5093022;28;20504;-47
2023/03/09 04:25:08;;;;;;;30.67;15.77;;;1.20;99.90;;;;;;5091665;28;20377;-47
2023/03/09 04:27:34;;;;;;;28.83;14.93;;;0.90;99.90;;;;;;5093286;28;20043;-47
2023/03/09 04:29:59;;;;;;;31.50;15.55;;;1.30;99.90;;;;;;5093118;28;20036;-46
2023/03/09 04:32:25;;;;;;;37.60;16.08;;;0.90;99.90;;;;;;5092948;28;20480;-46
2023/03/09 04:34:51;;;;;;;31.35;15.18;;;0.90;99.90;;;;;;5092737;28;20039;-48
2023/03/09 04:37:16;;;;;;;30.23;16.15;;;1.00;99.90;;;;;;5092702;28;20079;-47
2023/03/09 04:39:42;;;;;;;30.33;16.67;;;1.00;99.90;;;;;;5091337;28;20044;-47
2023/03/09 04:42:08;;;;;;;31.58;15.55;;;1.00;99.90;;;;;;5092578;28;20036;-50
2023/03/09 04:44:33;;;;;;;32.20;15.88;;;0.90;99.90;;;;;;5092824;28;20042;-47
2023/03/09 04:46:59;;;;;;;34.80;18.05;;;1.10;99.90;;;;;;5091576;28;20048;-47
2023/03/09 04:49:25;;;;;;;32.65;16.40;;;0.90;99.90;;;;;;5092492;28;20050;-46
2023/03/09 04:51:51;;;;;;;32.30;16.55;;;1.10;99.90;;;;;;5091072;28;20048;-47
2023/03/09 04:54:17;;;;;;;32.67;17.55;;;1.20;99.90;;;;;;5092840;28;20101;-47
2023/03/09 04:56:42;;;;;;;30.02;14.95;;;0.90;99.90;;;;;;5092489;28;20115;-48
2023/03/09 04:59:08;;;;;;;31.95;16.85;;;0.90;99.90;;;;;;5092574;28;20507;-46
2023/03/09 05:01:34;;;;;;;33.85;17.33;;;0.90;99.90;;;;;;5092426;28;20036;-47
2023/03/09 05:03:59;;;;;;;32.47;16.55;;;0.90;99.90;;;;;;5092502;28;20089;-46
2023/03/09 05:06:25;;;;;;;31.23;15.52;;;1.10;99.90;;;;;;5091067;28;20119;-49
2023/03/09 05:08:51;;;;;;;30.48;15.65;;;1.20;99.90;;;;;;5091049;28;20492;-51
2023/03/09 05:11:16;;;;;;;32.47;16.20;;;1.20;99.90;;;;;;5092290;28;20126;-47
2023/03/09 05:13:42;;;;;;;34.05;17.05;;;1.20;99.90;;;;;;5092276;28;20036;-50
2023/03/09 05:16:08;;;;;;;29.40;14.90;;;0.90;99.90;;;;;;5091039;28;20535;-47
2023/03/09 05:18:35;;;;;;;35.38;17.13;;;1.20;99.90;;;;;;5090834;28;20044;-49
2023/03/09 05:21:07;;;;;;;28.23;13.98;;;1.30;99.90;;;;;;5092050;28;20120;-46
2023/03/09 05:23:34;;;;;;;27.67;13.32;;;1.00;99.90;;;;;;5090813;28;20078;-47
2023/03/09 05:26:01;;;;;;;30.33;15.02;;;0.90;99.90;;;;;;5092165;28;20076;-47
2023/03/09 05:28:28;;;;;;;25.95;13.13;;;0.90;99.90;;;;;;5092223;28;20403;-46
2023/03/09 05:30:53;;;;;;;26.90;13.52;;;0.90;99.90;;;;;;5091994;28;20119;-47
2023/03/09 05:33:19;;;;;;;25.35;12.65;;;1.20;99.90;;;;;;5092341;28;20542;-46
2023/03/09 05:35:45;;;;;;;29.23;14.07;;;1.30;99.90;;;;;;5092419;28;20039;-48
2023/03/09 05:38:10;;;;;;;25.60;12.30;;;0.90;99.90;;;;;;5092034;28;20039;-47
2023/03/09 05:40:36;;;;;;;30.38;14.45;;;1.20;99.90;;;;;;5091830;28;20484;-48
2023/03/09 05:43:02;;;;;;;27.80;13.15;;;1.20;99.90;;;;;;5091790;28;20047;-47
2023/03/09 05:45:28;;;;;;;27.63;14.32;;;1.20;99.90;;;;;;5092262;28;20073;-49
2023/03/09 05:47:53;;;;;;;27.60;14.00;;;0.90;99.90;;;;;;5091800;28;20044;-46
2023/03/09 05:50:19;;;;;;;28.80;14.32;;;1.20;99.90;;;;;;5091474;28;20060;-46
2023/03/09 05:52:45;;;;;;;27.58;14.18;;;0.90;99.90;;;;;;5091848;28;20032;-47
2023/03/09 05:55:10;;;;;;;29.15;14.52;;;1.20;99.90;;;;;;5095265;28;20610;-46
2023/03/09 05:57:38;;;;;;;33.42;14.55;;;0.90;99.90;;;;;;5095532;28;20101;-52
2023/03/09 06:00:06;;;;;;;31.60;18.00;;;1.20;99.90;;;;;;5095823;28;20166;-49
2023/03/09 06:02:33;;;;;;;35.75;19.00;;;0.90;99.90;;;;;;5095668;28;20412;-50
2023/03/09 06:04:58;;;;;;;32.72;19.95;;;1.00;99.90;;;;;;5095628;28;20075;-48
2023/03/09 06:07:27;;;;;;;32.28;20.50;;;1.00;99.90;;;;;;5095802;28;20043;-48
2023/03/09 06:09:53;;;;;;;33.15;19.33;;;1.00;99.90;;;;;;5094577;28;20153;-49
2023/03/09 06:12:18;;;;;;;32.42;18.13;;;1.30;99.90;;;;;;5095422;28;20082;-46
2023/03/09 06:14:48;;;;;;;32.05;16.95;;;1.30;99.90;;;;;;5094208;28;20085;-48
2023/03/09 06:17:14;;;;;;;28.13;15.25;;;1.20;99.90;;;;;;5095809;28;20101;-48
2023/03/09 06:19:40;;;;;;;26.40;14.63;;;0.90;99.90;;;;;;5093987;28;20335;-53
2023/03/09 06:22:06;;;;;;;26.73;14.05;;;1.00;99.90;;;;;;5095244;28;20046;-46
2023/03/09 06:24:31;;;;;;;25.13;14.48;;;1.20;99.90;;;;;;5095526;28;20044;-47
2023/03/09 06:26:58;;;;;;;24.73;12.82;;;1.20;99.90;;;;;;5095424;28;20089;-47
2023/03/09 06:29:25;;;;;;;25.15;13.32;;;1.20;99.90;;;;;;5095266;28;20102;-48
2023/03/09 06:31:51;;;;;;;26.80;14.35;;;1.10;99.90;;;;;;5075477;28;20040;-46
2023/03/09 06:34:17;;;;;;;24.55;13.13;;;0.90;99.90;;;;;;5084313;28;20032;-47
2023/03/09 06:36:43;;;;;;;32.88;17.10;;;1.10;99.90;;;;;;5092309;28;20044;-49
2023/03/09 06:39:09;;;;;;;30.80;15.52;;;1.20;99.90;;;;;;5092364;28;20048;-47
2023/03/09 06:41:36;;;;;;;24.52;13.18;;;1.10;99.90;;;;;;5093454;28;20043;-48
2023/03/09 06:44:02;;;;;;;23.75;12.65;;;1.10;99.90;;;;;;5092229;28;20479;-47
2023/03/09 06:46:28;;;;;;;22.25;11.90;;;1.30;99.90;;;;;;5093850;28;20059;-46
2023/03/09 06:48:54;;;;;;;25.70;12.98;;;1.00;99.90;;;;;;5093478;28;20036;-48
2023/03/09 06:51:23;;;;;;;25.38;11.98;;;1.00;99.90;;;;;;5089723;28;20039;-51
2023/03/09 06:53:49;;;;;;;25.25;11.43;;;1.20;99.90;;;;;;5080901;28;20449;-48
2023/03/09 06:56:14;;;;;;;22.70;12.20;;;1.10;99.90;;;;;;5083911;28;20036;-46
2023/03/09 06:58:40;;;;;;;24.55;11.85;;;1.00;99.90;;;;;;5081415;28;20134;-47
2023/03/09 07:01:08;;;;;;;24.65;13.25;;;1.00;99.90;;;;;;5082592;28;20047;-47
2023/03/09 07:03:34;;;;;;;25.60;13.55;;;1.10;99.90;;;;;;5083571;28;20090;-47
2023/03/09 07:06:00;;;;;;;23.80;13.40;;;1.00;99.90;;;;;;5079668;28;20037;-50
2023/03/09 07:08:25;;;;;;;24.35;12.65;;;1.30;99.90;;;;;;5071202;28;20053;-47
2023/03/09 07:10:51;;;;;;;25.73;13.50;;;1.40;99.90;;;;;;5072694;28;20044;-48
2023/03/09 07:13:17;;;;;;;22.50;11.77;;;1.40;99.90;;;;;;5072512;28;20059;-47
2023/03/09 07:15:43;;;;;;;23.02;12.13;;;1.40;99.90;;;;;;5072425;28;20198;-47
2023/03/09 07:18:09;;;;;;;21.02;11.15;;;1.30;99.90;;;;;;5072380;28;20044;-49
2023/03/09 07:20:38;;;;;;;26.63;12.30;;;1.20;99.90;;;;;;5072456;28;20134;-46
2023/03/09 07:23:04;;;;;;;25.17;12.48;;;1.50;99.90;;;;;;5072464;28;20033;-51
2023/03/09 07:25:33;;;;;;;23.20;11.65;;;1.50;99.90;;;;;;5072487;28;20399;-47
2023/03/09 07:28:00;;;;;;;24.73;11.90;;;1.50;99.90;;;;;;5072420;28;20072;-46
2023/03/09 07:30:28;;;;;;;22.00;11.27;;;1.30;99.90;;;;;;5078599;28;20048;-49
2023/03/09 07:32:55;;;;;;;23.15;12.07;;;1.40;99.90;;;;;;5082983;28;20557;-47
2023/03/09 07:35:21;;;;;;;22.90;11.38;;;1.10;99.90;;;;;;5080031;28;20087;-47
2023/03/09 07:37:46;;;;;;;22.02;11.77;;;1.50;99.90;;;;;;5077925;28;20063;-47
2023/03/09 07:40:12;;;;;;;23.50;12.23;;;1.50;99.90;;;;;;5079363;28;20036;-45
2023/03/09 07:42:38;;;;;;;22.08;11.05;;;1.20;99.90;;;;;;5083894;28;20028;-48
2023/03/09 07:45:05;;;;;;;24.25;12.10;;;1.50;99.90;;;;;;5092379;28;20073;-48
2023/03/09 07:47:32;;;;;;;21.70;11.68;;;1.70;99.90;;;;;;5092152;28;20040;-47
2023/03/09 07:49:59;;;;;;;22.40;11.70;;;1.60;99.90;;;;;;5091848;28;20123;-46
2023/03/09 07:52:30;;;;;;;22.70;11.25;;;1.80;99.90;;;;;;5091485;28;20202;-46
2023/03/09 07:54:57;;;;;;;23.02;11.63;;;1.70;99.90;;;;;;5092041;28;20408;-46
2023/03/09 07:57:23;;;;;;;20.45;11.15;;;1.70;99.90;;;;;;5091760;28;20123;-47
2023/03/09 07:59:56;;;;;;;23.08;11.93;;;1.90;99.90;;;;;;5090556;28;20052;-47
2023/03/09 08:02:22;;;;;;;24.35;12.32;;;2.00;99.90;;;;;;5091618;28;20036;-46
2023/03/09 08:04:48;;;;;;;20.98;12.00;;;1.80;99.90;;;;;;5091862;28;20456;-46
2023/03/09 08:07:14;;;;;;;21.65;11.43;;;1.90;99.90;;;;;;5090771;28;20040;-49
2023/03/09 08:09:40;;;;;;;21.30;11.35;;;2.00;99.90;;;;;;5091977;28;20509;-46
2023/03/09 08:12:06;;;;;;;21.77;11.35;;;2.20;99.90;;;;;;5091590;28;20052;-47
2023/03/09 08:14:31;;;;;;;19.90;11.88;;;2.20;99.90;;;;;;5091434;28;20105;-46
2023/03/09 08:16:57;;;;;;;20.40;11.02;;;2.20;99.90;;;;;;5090417;28;20086;-47
2023/03/09 08:19:23;;;;;;;20.58;10.90;;;2.10;99.90;;;;;;5091430;28;20087;-46
2023/03/09 08:21:49;;;;;;;22.13;11.15;;;2.40;99.90;;;;;;5089954;28;20491;-47
2023/03/09 08:24:16;;;;;;;20.15;10.48;;;2.30;99.90;;;;;;5091262;28;20122;-48
2023/03/09 08:26:42;;;;;;;21.10;11.85;;;2.20;99.90;;;;;;5091324;28;20124;-46
2023/03/09 08:29:08;;;;;;;18.02;9.70;;;2.40;99.90;;;;;;5091303;28;20043;-49
2023/03/09 08:31:35;;;;;;;20.10;10.95;;;2.30;99.90;;;;;;5091329;28;20397;-48
2023/03/09 08:34:02;;;;;;;18.45;9.43;;;2.30;99.90;;;;;;5091122;28;20040;-48
2023/03/09 08:36:27;;;;;;;20.45;10.57;;;2.40;99.90;;;;;;5090906;28;20074;-48
2023/03/09 08:38:53;;;;;;;18.67;9.90;;;2.50;99.90;;;;;;5075841;28;20566;-47
2023/03/09 08:41:19;;;;;;;18.55;10.05;;;2.40;99.90;;;;;;5081401;28;20028;-48
2023/03/09 08:43:45;;;;;;;20.67;10.35;;;2.60;99.90;;;;;;5078837;28;20499;-48
2023/03/09 08:46:11;;;;;;;18.73;9.60;;;2.70;99.90;;;;;;5074118;28;20079;-47
2023/03/09 08:48:37;;;;;;;18.63;10.52;;;2.60;99.90;;;;;;5080975;28;20174;-48
2023/03/09 08:51:05;;;;;;;18.75;9.20;;;2.70;99.90;;;;;;5083060;28;20127;-50
2023/03/09 08:53:32;;;;;;;19.20;9.57;;;2.70;99.90;;;;;;5080230;28;20063;-50
2023/03/09 08:56:03;;;;;;;17.75;9.07;;;2.70;99.90;;;;;;5081230;28;20465;-49
2023/03/09 08:58:29;;;;;;;15.88;8.45;;;2.90;99.90;;;;;;5082675;28;20139;-47
2023/03/09 09:00:55;;;;;;;19.30;9.05;;;2.90;99.90;;;;;;5087959;28;20119;-50
2023/03/09 09:03:20;;;;;;;16.45;9.50;;;2.80;99.90;;;;;;5081221;28;20081;-45
2023/03/09 09:05:46;;;;;;;16.42;8.52;;;3.00;99.90;;;;;;5083197;28;20090;-48
2023/03/09 09:08:11;;;;;;;14.82;8.18;;;2.90;99.90;;;;;;5090805;28;20043;-47
2023/03/09 09:10:42;;;;;;;15.98;8.70;;;3.20;99.90;;;;;;5090912;28;20430;-50
2023/03/09 09:13:09;;;;;;;13.48;7.65;;;3.20;99.90;;;;;;5090831;28;20400;-48
2023/03/09 09:15:37;;;;;;;15.77;8.05;;;3.30;99.90;;;;;;5089654;28;20036;-58
2023/03/09 09:18:03;;;;;;;13.80;7.50;;;3.30;99.90;;;;;;5090723;28;20040;-58
2023/03/09 09:20:29;;;;;;;18.58;8.85;;;3.40;99.90;;;;;;5084879;28;20046;-58
2023/03/09 09:22:54;;;;;;;15.32;9.00;;;3.30;99.90;;;;;;5085708;28;20040;-58
2023/03/09 09:25:20;;;;;;;13.90;8.75;;;3.40;99.90;;;;;;5090528;28;20040;-56
2023/03/09 09:27:50;;;;;;;13.30;7.80;;;3.40;99.90;;;;;;5091490;28;20040;-56
2023/03/09 09:30:16;;;;;;;15.02;8.52;;;3.60;99.90;;;;;;5091221;28;20559;-56
2023/03/09 09:32:44;;;;;;;15.95;8.38;;;3.60;99.90;;;;;;5091828;28;20131;-56
2023/03/09 09:35:10;;;;;;;14.65;8.15;;;3.60;99.90;;;;;;5090397;28;20040;-56
2023/03/09 09:37:36;;;;;;;13.32;7.63;;;3.60;99.90;;;;;;5092150;28;20051;-57
2023/03/09 09:40:02;;;;;;;13.65;7.38;;;3.70;99.90;;;;;;5092174;28;20036;-56
2023/03/09 09:42:36;;;;;;;14.77;7.82;;;3.60;99.90;;;;;;5092143;28;20036;-57
2023/03/09 09:45:05;;;;;;;12.93;7.80;;;3.60;99.90;;;;;;5092058;28;20199;-56
2023/03/09 09:47:32;;;;;;;15.02;8.00;;;3.60;99.90;;;;;;5092052;28;20391;-56
2023/03/09 09:50:01;;;;;;;15.15;8.43;;;3.80;99.90;;;;;;5090201;28;20120;-57
2023/03/09 09:52:59;;;;;;;17.02;9.50;;;3.80;99.90;;;;;;5091813;28;20109;-57
2023/03/09 09:55:39;;;;;;;17.70;8.55;;;3.80;99.90;;;;;;5082333;28;20121;-57
2023/03/09 09:58:24;;;;;;;14.18;8.13;;;4.00;99.90;;;;;;5091495;28;20453;-56
2023/03/09 10:00:55;;;;;;;13.95;8.77;;;4.00;99.90;;;;;;5091689;28;20050;-57
2023/03/09 10:03:37;;;;;;;17.40;9.23;;;4.10;99.90;;;;;;5090695;28;20036;-57
2023/03/09 10:06:20;;;;;;;16.08;8.88;;;4.20;99.90;;;;;;5092062;28;20430;-57
2023/03/09 10:09:26;;;;;;;14.50;8.95;;;4.40;99.90;;;;;;5091645;28;20028;-58
2023/03/09 10:11:58;;;;;;;12.43;7.88;;;4.40;99.90;;;;;;5085325;28;20055;-57
2023/03/09 10:14:35;;;;;;;13.57;8.40;;;4.60;99.90;;;;;;5091837;28;20472;-57
2023/03/09 10:17:20;;;;;;;14.00;8.35;;;4.60;99.90;;;;;;5091475;28;20042;-57
2023/03/09 10:19:48;;;;;;;13.70;8.45;;;4.90;99.90;;;;;;5091795;28;20442;-57
2023/03/09 10:22:17;;;;;;;13.38;8.05;;;4.80;99.90;;;;;;5091718;28;20036;-57
2023/03/09 10:24:50;;;;;;;13.32;9.05;;;4.70;99.90;;;;;;5091795;28;20055;-57
2023/03/09 10:27:24;;;;;;;18.23;10.05;;;4.50;99.90;;;;;;5091383;28;20527;-56
2023/03/09 10:30:02;;;;;;;14.13;8.40;;;4.50;99.90;;;;;;5091581;28;20040;-57
2023/03/09 10:32:46;;;;;;;11.35;7.32;;;4.40;99.90;;;;;;5091656;28;20115;-57
2023/03/09 10:35:24;;;;;;;15.65;8.40;;;4.50;99.90;;;;;;5092032;28;20162;-55
2023/03/09 10:37:51;;;;;;;12.23;7.57;;;4.50;99.90;;;;;;5091477;28;20125;-57
2023/03/09 10:40:32;;;;;;;12.93;8.25;;;4.50;99.90;;;;;;5093158;28;20503;-57
2023/03/09 10:42:59;;;;;;;15.10;7.82;;;4.50;99.90;;;;;;5095157;28;20102;-56
2023/03/09 10:45:29;;;;;;;12.63;7.03;;;4.50;99.90;;;;;;5095091;28;20062;-57
2023/03/09 10:48:00;;;;;;;12.80;7.13;;;4.70;99.90;;;;;;5095471;28;20052;-57
2023/03/09 10:50:40;;;;;;;13.93;8.13;;;4.80;99.90;;;;;;5093206;28;20498;-57
2023/03/09 10:53:23;;;;;;;13.23;7.65;;;4.80;99.90;;;;;;5094355;28;20035;-57
2023/03/09 10:55:52;;;;;;;13.18;8.05;;;4.80;99.90;;;;;;5094768;28;20063;-57
2023/03/09 10:58:23;;;;;;;11.98;7.25;;;4.70;99.90;;;;;;5094640;28;20050;-57
2023/03/09 11:01:02;;;;;;;12.48;6.40;;;4.80;99.90;;;;;;5094089;28;20434;-58
2023/03/09 11:03:36;;;;;;;13.15;7.65;;;4.80;99.90;;;;;;5094150;28;20040;-57
2023/03/09 11:06:08;;;;;;;14.23;7.13;;;4.70;99.90;;;;;;5094105;28;20040;-58
2023/03/09 11:08:34;;;;;;;11.00;6.65;;;4.80;99.90;;;;;;5093978;28;20515;-57
2023/03/09 11:11:02;;;;;;;11.27;6.82;;;4.80;99.90;;;;;;5093640;28;20161;-58
2023/03/09 11:13:27;;;;;;;10.35;6.07;;;5.00;99.90;;;;;;5093543;28;20293;-57
2023/03/09 11:16:13;;;;;;;10.48;6.50;;;5.00;99.90;;;;;;5093068;28;20032;-58
2023/03/09 11:18:39;;;;;;;8.40;4.60;;;5.00;99.90;;;;;;5091964;28;20433;-57
2023/03/09 11:21:04;;;;;;;9.80;4.70;;;5.00;99.90;;;;;;5082781;28;20112;-58
2023/03/09 11:23:39;;;;;;;7.68;4.30;;;5.10;99.90;;;;;;5082366;28;20033;-58
2023/03/09 11:26:39;;;;;;;16.83;8.02;;;5.20;99.90;;;;;;5082871;28;20124;-56
2023/03/09 11:29:10;;;;;;;9.77;5.85;;;5.30;99.90;;;;;;5084568;28;20119;-58
2023/03/09 11:31:38;;;;;;;10.18;5.18;;;5.40;99.90;;;;;;5083112;28;20040;-58
2023/03/09 11:34:22;;;;;;;11.70;4.80;;;5.40;99.90;;;;;;5080363;28;20051;-57
2023/03/09 11:36:55;;;;;;;9.20;4.78;;;5.50;99.90;;;;;;5082000;28;20500;-58
2023/03/09 11:39:28;;;;;;;8.10;4.70;;;5.40;99.90;;;;;;5082913;28;20111;-57
2023/03/09 11:41:57;;;;;;;8.77;4.65;;;5.20;99.90;;;;;;5082871;28;20032;-58
2023/03/09 11:44:30;;;;;;;10.82;5.78;;;5.30;99.90;;;;;;5083673;28;20040;-58
2023/03/09 11:47:02;;;;;;;8.43;4.80;;;5.40;99.90;;;;;;5083696;28;20093;-58
2023/03/09 11:49:29;;;;;;;10.38;4.93;;;5.40;99.90;;;;;;5082032;28;20115;-58
2023/03/09 11:51:57;;;;;;;9.63;5.47;;;5.40;99.90;;;;;;5093130;28;20115;-57
2023/03/09 11:54:27;;;;;;;8.85;4.53;;;5.40;99.90;;;;;;5092778;28;20464;-58
2023/03/09 11:56:54;;;;;;;9.57;5.18;;;5.30;99.90;;;;;;5093686;28;20039;-58
2023/03/09 11:59:34;;;;;;;10.13;5.35;;;5.40;99.90;;;;;;5092784;28;20056;-58
2023/03/09 12:02:13;;;;;;;9.40;4.97;;;5.40;99.90;;;;;;5093476;28;20047;-57
2023/03/09 12:04:39;;;;;;;9.45;5.32;;;5.40;99.90;;;;;;5093050;28;20482;-57
2023/03/09 12:07:20;;;;;;;10.00;5.07;;;5.30;99.90;;;;;;5088419;28;20044;-59
2023/03/09 12:09:49;;;;;;;9.07;5.28;;;5.30;99.90;;;;;;5081167;28;20040;-58
2023/03/09 12:12:23;;;;;;;11.25;4.82;;;5.30;99.90;;;;;;5083562;28;20054;-57
2023/03/09 12:14:54;;;;;;;10.30;5.47;;;5.50;99.90;;;;;;5080892;28;20041;-57
2023/03/09 12:17:26;;;;;;;11.50;4.95;;;5.30;99.90;;;;;;5079868;28;20124;-57
2023/03/09 12:19:53;;;;;;;9.38;5.25;;;5.40;99.90;;;;;;5082210;28;20043;-58
2023/03/09 12:22:30;;;;;;;9.25;4.50;;;5.20;99.90;;;;;;5086300;28;20116;-59
2023/03/09 12:25:04;;;;;;;9.95;5.30;;;5.40;99.90;;;;;;5081670;28;20031;-58
2023/03/09 12:27:32;;;;;;;9.85;5.30;;;5.20;99.90;;;;;;5079719;28;20037;-57
2023/03/09 12:30:09;;;;;;;10.75;4.75;;;5.30;99.90;;;;;;5084006;28;20076;-58
2023/03/09 12:32:41;;;;;;;9.50;5.50;;;5.20;99.90;;;;;;5083360;28;20047;-57
2023/03/09 12:35:10;;;;;;;;;;;5.30;99.90;;;;;;5078336;28;20119;-57
2023/03/09 12:37:35;;;;;;;8.10;4.65;;;5.20;99.90;;;;;;5072480;28;19916;-59
2023/03/09 12:40:26;;;;;;;10.88;5.40;;;5.30;99.90;;;;;;5072571;28;20044;-58
2023/03/09 12:43:42;;;;;;;8.77;4.70;;;5.20;99.90;;;;;;5072224;28;20044;-58
2023/03/09 12:46:59;;;;;;;8.75;5.10;;;5.30;99.90;;;;;;5030018;28;20378;-57
2023/03/09 12:49:27;;;;;;;10.38;5.05;;;5.30;99.90;;;;;;4991010;28;20056;-57